AirNav   Air Wisconsin Up To $57,000 Bonus
 
 829 users online  

I19 Greene County/Lewis A Jackson Regional Airport
Dayton, Ohio, USA

GOING TO DAYTON?


FAA INFORMATION EFFECTIVE 08 SEPTEMBER 2022

Location

FAA Identifier: I19
Lat/Long: 39-41-26.6000N 083-59-34.0000W
39-41.443333N 083-59.566667W
39.6907222,-83.9927778
(estimated)
Elevation: 948.5 ft. / 289.1 m (surveyed)
Variation: 05W (1995)
From city: 10 miles E of DAYTON, OH
Time zone: UTC -4 (UTC -5 during Standard Time)
Zip code: 45385

Airport Operations

Airport use: Open to the public
Activation date: 10/1968
Control tower: no
ARTCC: INDIANAPOLIS CENTER
FSS: DAYTON FLIGHT SERVICE STATION
NOTAMs facility: DAY (NOTAM-D service available)
Attendance: NOV-MAR 0800-1800, APR-OCT 0800-2000
UNATNDD THANKSGIVING, CHRISTMAS, & NEW YEARS DAY.
Wind indicator: lighted
Segmented circle: no
Lights: ACTVT REIL RWY 07 & 25; MIRL RWY 07/25 - CTAF. PAPI RWY 07 & 25 OPR CONSLY.
Beacon: white-green (lighted land airport)
Operates sunset to sunrise.

Airport Communications

CTAF/UNICOM: 122.7
WX AWOS-3: 118.525 (937-372-4668)
COLUMBUS APPROACH: 118.85
COLUMBUS DEPARTURE: 118.85
CLASS C: 118.85
IC: 118.85
WX AWOS-3PT at SGH (11 nm NE): 134.975 (937-324-4532)
WX ASOS at MGY (12 nm SW): 118.375 (937-885-2171)
WX AWOS-3 at I66 (13 nm SE): 124.175 (937-382-1376)
WX ASOS at DAY (16 nm NW): PHONE 937-415-6819
WX AWOS-3 at I68 (18 nm SW): 120.55 (513-934-5500)
WX ASOS at ILN (18 nm SE): PHONE 937-383-7334

Nearby radio navigation aids

VOR radial/distance  VOR name  Freq  Var
MXQr335/18.0MIDWEST VOR/DME112.9004W
DQNr137/27.0DAYTON VOR/DME114.5001W
RODr181/35.9ROSEWOOD VORTAC117.5005W

 
NDB name  Hdg/Dist  Freq  Var  ID
HOOK FIELD065/24.023904WHKF .... -.- ..-.
COURT HOUSE287/28.341406WCSS -.-. ... ...
SPORTYS020/38.324504WPWF .--. .-- ..-.

Airport Services

Fuel available: 100LL JET-A+
100LL:100LL & JET A+ AVBL H24 SELF SVC VIA CREDIT CARD.
Parking: hangars and tiedowns
Airframe service: MAJOR
Powerplant service: MAJOR
Bottled oxygen: NONE
Bulk oxygen: HIGH

Runway Information

Runway 7/25

Dimensions: 5004 x 75 ft. / 1525 x 23 m
Surface: asphalt, in good condition
Weight bearing capacity: 
Single wheel: 30.0
Runway edge lights: medium intensity
Runway edge markings: FADED.
RUNWAY 7  RUNWAY 25
Latitude: 39-41.256342N39-41.629478N
Longitude: 084-00.042808W083-59.091673W
Elevation: 909.5 ft.948.5 ft.
Traffic pattern: leftleft
Runway heading: 068 magnetic, 063 true248 magnetic, 243 true
Markings: nonprecision, in good conditionnonprecision, in poor condition
Visual slope indicator: 2-light PAPI on left (3.50 degrees glide path)2-light PAPI on left (3.50 degrees glide path)
Runway end identifier lights: yesyes
Touchdown point: yes, no lightsyes, no lights

Airport Ownership and Management from official FAA records

Ownership: Publicly-owned
Owner: GREENE COUNTY RGNL ARPT AUTH
140 N VALLEY RD
XENIA, OH 45385-9301
Phone 937-376-8107
Manager: DAVE KUSHNER
140 N VALLEY RD
XENIA, OH 45385-9301
Phone 937-376-8107

Airport Operational Statistics

Aircraft based on the field: 78
Single engine airplanes: 68
Multi engine airplanes: 9
Helicopters: 1
    
Aircraft operations: avg 139/day *
88% local general aviation
12% transient general aviation
* for 12-month period ending 09 September 2021

Additional Remarks

A58-07 2-4 FT BRUSH, 0-90 FT DIST, 100 FT R; 2-3 FT BRUSH, 100-150 FT DIST, 130-215 FT L.
A30A-07 CALM WIND RWY.
BIRDS, COYOTES, & DEER ON & INVOF ARPT.
FOR CD CTC COLUMBUS APCH AT 614-338-8537.
EXTSV FLT TRG ACT.

Instrument Procedures

NOTE: All procedures below are presented as PDF files. If you need a reader for these files, you should download the free Adobe Reader.

NOT FOR NAVIGATION. Please procure official charts for flight.
FAA instrument procedures published for use from 8 September 2022 at 0901Z to 6 October 2022 at 0900Z.

 
IAPs - Instrument Approach Procedures
RNAV (GPS) RWY 07   download (262KB)
RNAV (GPS) RWY 25   download (257KB)
NOTE: Special Take-Off Minimums/Departure Procedures apply   download (462KB)

Other nearby airports with instrument procedures:

KFFO - Wright-Patterson Air Force Base (8 nm N)
KSGH - Springfield/Beckley Municipal Airport (11 nm NE)
KMGY - Dayton-Wright Brothers Airport (12 nm SW)
I66 - Clinton Field Airport (13 nm SE)
KDAY - James M Cox Dayton International Airport (16 nm NW)
I68 - Warren County Airport/John Lane Field (18 nm SW)
KILN - Wilmington Air Park (18 nm SE)
 
Loc | Ops | Rwys | IFR | FBO | Links
Com | Nav | Svcs | Stats | Notes
Area around I19 (Greene County/Lewis A Jackson Regional Airport)
 
Road maps at: MapQuest Bing Google
 
Aerial photo
WARNING: Photo may not be current or correct
Aerial photo of I19 (Greene County/Lewis A Jackson Regional Airport)
Photo by Anthony Springer
Photo taken 13-Jun-2018
looking northeast.

Do you have a better or more recent aerial photo of Greene County/Lewis A Jackson Regional Airport that you would like to share? If so, please send us your photo.

 
Sectional chart

 
Airport distance calculator
Flying to Greene County/Lewis A Jackson Regional Airport? Find the distance to fly.

From to I19

Sunrise and sunset
Times for 02-Oct-2022
 Local
(UTC-4)
 Zulu
(UTC)
Morning civil twilight07:0711:07
Sunrise07:3411:34
Sunset19:1723:17
Evening civil twilight19:4323:43

Current date and time
Zulu (UTC)  02-Oct-2022 13:16:57
Local (UTC-4)  02-Oct-2022 09:16:57
 
METAR
KFFO 
8nm N 
021255Z AUTO 36010KT 10SM CLR 12/10 A3015 RMK AO2 SLP213 T01210100
KSGH 
11nm NE 
021256Z AUTO 03014G18KT 10SM CLR 13/13 A3017 RMK AO2 SLP219 T01330133
KMGY 
12nm SW 
021253Z AUTO 01012KT 10SM FEW010 13/11 A3017 RMK AO2 SLP213 T01280106
KDAY 
16nm NW 
021303Z 01017KT 10SM SCT020 SCT250 14/11 A3020 RMK AO2 T01390106
KILN 
18nm SE 
021254Z AUTO 02011KT 10SM CLR 13/11 A3015 RMK AO2 SLP214 T01330106
KI68 
18nm SW 
021255Z AUTO 02011G18KT 10SM CLR 13/11 A3017 RMK AO1 T01280107
TAF
KFFO 
8nm N 
021100Z 0211/0317 01009KT 9999 SKC 520103 QNH3011INS BECMG 0212/0213 02010G15KT 9999 FEW025 510053 QNH3013INS TEMPO 0213/0218 02015G25KT BECMG 0217/0218 02012KT 9999 SCT035 510053 QNH3018INS TEMPO 0218/0223 02015G25KT BECMG 0222/0223 03012KT 9999 SKC 510102 QNH3020INS WND 03009KT AFT 0302 BECMG 0306/0307 03009KT 9999 SKC QNH3024INS TX20/0220Z TN06/0311Z
KDAY 
16nm NW 
021135Z 0212/0312 01011KT P6SM SKC FM021300 02014G21KT P6SM FEW022 TEMPO 0213/0217 BKN022 FM021700 02015G22KT P6SM SCT035 FM022300 03010KT P6SM SKC
KILN 
18nm SE 
021135Z 0212/0312 01009KT P6SM FEW250 FM021400 03014G21KT P6SM SCT030 FM021700 02014G23KT P6SM FEW035 FM022300 02009KT P6SM SKC FM030700 02006KT P6SM SKC
NOTAMs
Click for the latest NOTAMs
NOTAMs are issued by the DoD/FAA and will open in a separate window not controlled by AirNav.

 

 
 

FBO, Fuel Providers, and Aircraft Ground Support

  
 Business Name 
 
 Contact 
 
 Services / Description 
 
Fuel Prices
 
Comments
  
 MacAir Aviation
937-581-8056
[web site]
[email]
Aviation fuel, Aircraft ground handling, Aircraft parking (ramp or tiedown), Passenger terminal and lounge, Pilot school (FAR Part 141), ...
 
Certificated Pilot School   PSI FAA Test Center  
 
More info about MacAir Aviation
EPIC
100LL Jet A
AS $6.39 $5.91 
 Updated 12-Sep-2022
 
   2 read write
AS=Assisted/Self Service
Update Fuel Prices
 

Would you like to see your business listed on this page?

 If your business provides an interesting product or service to pilots, flight crews, aircraft, or users of the Greene County/Lewis A Jackson Regional Airport, you should consider listing it here.  To start the listing process, click on the button below
 
Add a business
 

Other Pages about Greene County/Lewis A Jackson Regional Airport

www.i19airport.com
 
Update a link
 
Copyright © AirNav, LLC. All rights reserved. Privacy Policy  Contact